Time;durP1;ratioP1;P1;durP2;ratioP2;P2;SDS_P1;SDS_P2;PMS_P1;PMS_P2;Temp;Humidity;BMP_temperature;BMP_pressure;BME280_temperature;BME280_humidity;BME280_pressure;Samples;Min_cycle;Max_cycle;Signal;HPM_P1;HPM_P2
2022/09/02 00:01:31;;;;;;;6.60;6.00;;;17.60;99.90;;;;;;5073535;28;20456;-64
2022/09/02 00:04:05;;;;;;;7.23;5.27;;;17.50;99.90;;;;;;5073523;28;20498;-65
2022/09/02 00:06:35;;;;;;;6.20;5.60;;;17.30;99.90;;;;;;5073417;28;20444;-65
2022/09/02 00:09:05;;;;;;;6.30;5.70;;;17.40;99.90;;;;;;5073393;28;20497;-65
2022/09/02 00:11:35;;;;;;;6.30;5.40;;;17.70;99.90;;;;;;5073501;28;20464;-65
2022/09/02 00:14:04;;;;;;;6.43;5.83;;;17.50;99.90;;;;;;5073182;28;20484;-66
2022/09/02 00:16:32;;;;;;;6.50;5.83;;;17.30;99.90;;;;;;5073006;28;20432;-65
2022/09/02 00:19:01;;;;;;;8.10;7.40;;;17.50;99.90;;;;;;5073112;28;20546;-65
2022/09/02 00:21:29;;;;;;;6.73;6.13;;;17.50;99.90;;;;;;5073244;28;20469;-66
2022/09/02 00:23:56;;;;;;;5.93;5.47;;;17.70;99.90;;;;;;5072856;28;20436;-66
2022/09/02 00:26:26;;;;;;;6.80;6.17;;;17.90;99.90;;;;;;5073401;28;20536;-65
2022/09/02 00:28:53;;;;;;;5.90;5.40;;;17.90;99.90;;;;;;5073348;28;20448;-65
2022/09/02 00:31:21;;;;;;;5.60;5.10;;;18.00;99.90;;;;;;5073119;28;20460;-65
2022/09/02 00:33:49;;;;;;;5.57;5.07;;;18.00;99.90;;;;;;5073144;28;20484;-64
2022/09/02 00:36:17;;;;;;;9.27;5.30;;;17.90;99.90;;;;;;5073003;28;20454;-64
2022/09/02 00:38:44;;;;;;;6.07;5.47;;;18.00;99.90;;;;;;5072973;28;20511;-64
2022/09/02 00:41:11;;;;;;;6.37;5.10;;;18.10;99.90;;;;;;5072835;28;21062;-65
2022/09/02 00:43:44;;;;;;;6.77;5.53;;;17.80;99.90;;;;;;5073223;28;20432;-65
2022/09/02 00:46:14;;;;;;;5.90;5.30;;;17.50;99.90;;;;;;5073154;28;20772;-65
2022/09/02 00:48:47;;;;;;;7.67;5.40;;;17.30;99.90;;;;;;5073521;28;20519;-65
2022/09/02 00:51:15;;;;;;;7.03;6.43;;;17.10;99.90;;;;;;5076708;28;20463;-65
2022/09/02 00:53:44;;;;;;;5.70;5.20;;;17.00;99.90;;;;;;5076515;28;20483;-64
2022/09/02 00:56:17;;;;;;;6.50;5.87;;;17.00;99.90;;;;;;5076935;28;20448;-65
2022/09/02 00:58:46;;;;;;;6.57;5.97;;;16.80;99.90;;;;;;5076885;28;20428;-65
2022/09/02 01:01:13;;;;;;;6.20;5.60;;;16.80;99.90;;;;;;5076849;28;20459;-65
2022/09/02 01:03:41;;;;;;;6.10;5.57;;;16.90;99.90;;;;;;5076577;28;20455;-65
2022/09/02 01:06:10;;;;;;;5.80;5.27;;;16.80;99.90;;;;;;5076556;28;20498;-65
2022/09/02 01:08:38;;;;;;;5.67;5.17;;;16.80;99.90;;;;;;5076697;28;20479;-65
2022/09/02 01:11:06;;;;;;;5.60;5.10;;;16.70;99.90;;;;;;5076666;28;20560;-65
2022/09/02 01:13:40;;;;;;;5.40;5.00;;;16.90;99.90;;;;;;5076215;28;20451;-65
2022/09/02 01:16:23;;;;;;;5.50;5.10;;;17.30;99.90;;;;;;5076612;28;20778;-65
2022/09/02 01:18:53;;;;;;;6.07;5.47;;;17.50;99.90;;;;;;5076208;28;20922;-65
2022/09/02 01:21:21;;;;;;;5.13;4.73;;;17.50;99.90;;;;;;5076227;28;20464;-65
2022/09/02 01:23:51;;;;;;;6.20;5.70;;;17.80;99.90;;;;;;5076339;28;20531;-66
2022/09/02 01:26:19;;;;;;;5.17;4.77;;;17.70;99.90;;;;;;5076070;28;20744;-66
2022/09/02 01:28:46;;;;;;;5.30;4.80;;;17.90;99.90;;;;;;5076292;28;20444;-66
2022/09/02 01:31:13;;;;;;;6.13;5.63;;;17.50;99.90;;;;;;5076042;28;20459;-65
2022/09/02 01:33:40;;;;;;;5.67;5.00;;;17.00;99.90;;;;;;5076158;28;20792;-65
2022/09/02 01:36:08;;;;;;;5.40;4.90;;;16.90;99.90;;;;;;5075779;28;20543;-65
2022/09/02 01:38:35;;;;;;;5.47;5.07;;;16.80;99.90;;;;;;5075938;28;20531;-66
2022/09/02 01:41:04;;;;;;;5.07;4.67;;;16.80;99.90;;;;;;5075924;28;20518;-65
2022/09/02 01:43:31;;;;;;;6.43;5.10;;;16.80;99.90;;;;;;5075692;28;20547;-66
2022/09/02 01:45:59;;;;;;;5.50;4.87;;;16.50;99.90;;;;;;5076124;28;20444;-65
2022/09/02 01:48:27;;;;;;;5.67;4.73;;;16.70;99.90;;;;;;5075046;28;20476;-65
2022/09/02 01:50:56;;;;;;;5.20;4.80;;;16.80;99.90;;;;;;5075538;28;20985;-65
2022/09/02 01:53:24;;;;;;;6.60;5.43;;;16.90;99.90;;;;;;5075914;28;20547;-65
2022/09/02 01:55:51;;;;;;;6.83;4.60;;;16.80;99.90;;;;;;5075741;28;20484;-65
2022/09/02 01:58:20;;;;;;;13.53;5.20;;;17.10;99.90;;;;;;5075898;28;20444;-66
2022/09/02 02:00:47;;;;;;;5.07;4.57;;;17.40;99.90;;;;;;5074100;28;20547;-65
2022/09/02 02:03:15;;;;;;;6.13;4.30;;;17.50;99.90;;;;;;5075833;28;20448;-65
2022/09/02 02:05:42;;;;;;;5.80;4.67;;;17.60;99.90;;;;;;5075363;28;20479;-65
2022/09/02 02:08:10;;;;;;;5.63;5.13;;;17.70;99.90;;;;;;5075287;28;20857;-65
2022/09/02 02:10:37;;;;;;;5.10;4.70;;;17.70;99.90;;;;;;5075555;28;20511;-65
2022/09/02 02:13:04;;;;;;;5.73;5.17;;;17.30;99.90;;;;;;5075255;28;20520;-66
2022/09/02 02:15:33;;;;;;;5.30;4.80;;;17.00;99.90;;;;;;5075115;28;21028;-65
2022/09/02 02:18:00;;;;;;;4.73;4.33;;;16.80;99.90;;;;;;5075533;28;20502;-66
2022/09/02 02:20:28;;;;;;;4.83;4.30;;;16.50;99.90;;;;;;5075002;28;20824;-66
2022/09/02 02:22:55;;;;;;;5.53;4.47;;;16.70;99.90;;;;;;5075315;28;20444;-65
2022/09/02 02:25:22;;;;;;;8.43;4.60;;;16.70;99.90;;;;;;5075389;28;20535;-66
2022/09/02 02:27:50;;;;;;;6.27;4.67;;;16.30;99.90;;;;;;5075229;28;20479;-66
2022/09/02 02:30:18;;;;;;;4.93;4.43;;;16.40;99.90;;;;;;5075125;28;20807;-66
2022/09/02 02:32:47;;;;;;;6.73;4.70;;;16.50;99.90;;;;;;5075290;28;20539;-66
2022/09/02 02:35:15;;;;;;;6.73;4.20;;;16.50;99.90;;;;;;5074663;28;20562;-66
2022/09/02 02:37:43;;;;;;;4.90;4.50;;;16.30;99.90;;;;;;5074710;28;20448;-65
2022/09/02 02:40:11;;;;;;;4.47;4.17;;;16.30;99.90;;;;;;5074835;28;20448;-65
2022/09/02 02:42:39;;;;;;;4.87;4.47;;;16.20;99.90;;;;;;5075107;28;20531;-66
2022/09/02 02:45:10;;;;;;;4.50;4.10;;;16.20;99.90;;;;;;5074913;28;20489;-66
2022/09/02 02:47:39;;;;;;;4.50;4.10;;;16.30;99.90;;;;;;5074366;28;20978;-65
2022/09/02 02:50:11;;;;;;;4.53;4.13;;;16.70;99.90;;;;;;5074927;28;20539;-65
2022/09/02 02:52:38;;;;;;;4.53;4.13;;;16.80;99.90;;;;;;5074377;28;20471;-66
2022/09/02 02:55:07;;;;;;;4.10;3.80;;;16.90;99.90;;;;;;5074565;28;20484;-66
2022/09/02 02:57:35;;;;;;;5.07;4.53;;;17.20;99.90;;;;;;5074498;28;20440;-66
2022/09/02 03:00:06;;;;;;;4.40;4.07;;;16.90;99.90;;;;;;5074610;28;20452;-66
2022/09/02 03:02:33;;;;;;;4.33;3.93;;;16.80;99.90;;;;;;5074477;28;20478;-66
2022/09/02 03:05:01;;;;;;;5.20;4.43;;;16.40;99.90;;;;;;5074133;28;20444;-66
2022/09/02 03:07:30;;;;;;;5.10;4.70;;;16.20;99.90;;;;;;5074565;28;20445;-65
2022/09/02 03:09:57;;;;;;;5.37;4.90;;;16.10;99.90;;;;;;5074389;28;20444;-65
2022/09/02 03:12:24;;;;;;;4.70;4.30;;;15.90;99.90;;;;;;5073906;28;20479;-65
2022/09/02 03:14:52;;;;;;;5.10;4.53;;;15.80;99.90;;;;;;5074027;28;21057;-65
2022/09/02 03:17:19;;;;;;;4.90;4.50;;;15.90;99.90;;;;;;5074173;28;20445;-65
2022/09/02 03:19:47;;;;;;;6.97;4.10;;;15.80;99.90;;;;;;5073873;28;20837;-65
2022/09/02 03:22:14;;;;;;;5.20;4.40;;;15.90;99.90;;;;;;5074072;28;20468;-66
2022/09/02 03:24:43;;;;;;;6.50;4.80;;;15.80;99.90;;;;;;5073780;28;21023;-65
2022/09/02 03:27:10;;;;;;;4.83;4.43;;;15.70;99.90;;;;;;5073828;28;20486;-66
2022/09/02 03:29:37;;;;;;;4.97;4.47;;;15.80;99.90;;;;;;5073909;28;20444;-65
2022/09/02 03:32:04;;;;;;;6.53;4.40;;;15.90;99.90;;;;;;5073824;28;20468;-65
2022/09/02 03:34:31;;;;;;;5.63;4.30;;;16.10;99.90;;;;;;5073491;28;21225;-66
2022/09/02 03:36:59;;;;;;;5.50;4.60;;;16.10;99.90;;;;;;5074046;28;20869;-65
2022/09/02 03:39:26;;;;;;;5.20;4.70;;;15.90;99.90;;;;;;5073579;28;20920;-65
2022/09/02 03:41:54;;;;;;;6.23;5.50;;;15.80;99.90;;;;;;5073830;28;20502;-65
2022/09/02 03:44:22;;;;;;;5.37;4.30;;;15.50;99.90;;;;;;5073895;28;20479;-65
2022/09/02 03:46:49;;;;;;;5.10;4.70;;;15.50;99.90;;;;;;5073519;28;20483;-65
2022/09/02 03:49:16;;;;;;;5.20;4.80;;;15.40;99.90;;;;;;5073521;28;20436;-66
2022/09/02 03:51:44;;;;;;;5.47;5.07;;;15.40;99.90;;;;;;5073427;28;20559;-65
2022/09/02 03:54:11;;;;;;;5.07;4.67;;;15.40;99.90;;;;;;5073392;28;20787;-65
2022/09/02 03:56:39;;;;;;;7.47;5.03;;;15.70;99.90;;;;;;5073222;28;20476;-65
2022/09/02 03:59:07;;;;;;;6.80;4.63;;;15.60;99.90;;;;;;5073241;28;20445;-66
2022/09/02 04:01:35;;;;;;;5.40;4.60;;;15.70;99.90;;;;;;5073310;28;20444;-68
2022/09/02 04:04:03;;;;;;;5.47;5.07;;;15.60;99.90;;;;;;5073236;28;20544;-65
2022/09/02 04:06:30;;;;;;;5.00;4.60;;;15.60;99.90;;;;;;5073170;28;20539;-65
2022/09/02 04:08:57;;;;;;;5.30;4.70;;;15.50;99.90;;;;;;5073250;28;20484;-65
2022/09/02 04:11:24;;;;;;;5.93;5.00;;;15.60;99.90;;;;;;5073249;28;20467;-65
2022/09/02 04:13:53;;;;;;;5.20;4.80;;;15.40;99.90;;;;;;5073381;28;20535;-65
2022/09/02 04:16:27;;;;;;;4.97;4.57;;;15.30;99.90;;;;;;5073080;28;20472;-65
2022/09/02 04:18:56;;;;;;;7.90;5.67;;;15.30;99.90;;;;;;5073167;28;20939;-65
2022/09/02 04:21:23;;;;;;;4.80;4.40;;;15.30;99.90;;;;;;5072870;28;20472;-65
2022/09/02 04:23:51;;;;;;;6.77;5.20;;;15.40;99.90;;;;;;5072243;28;20444;-65
2022/09/02 04:26:20;;;;;;;7.03;4.80;;;15.60;99.90;;;;;;5073342;28;20448;-65
2022/09/02 04:28:48;;;;;;;5.20;4.80;;;15.90;99.90;;;;;;5073263;28;20452;-66
2022/09/02 04:31:17;;;;;;;6.37;4.27;;;16.30;99.90;;;;;;5073148;28;20500;-66
2022/09/02 04:33:46;;;;;;;7.30;4.73;;;16.60;99.90;;;;;;5072954;28;20944;-66
2022/09/02 04:36:15;;;;;;;4.63;4.27;;;16.50;99.90;;;;;;5073108;28;20605;-66
2022/09/02 04:38:43;;;;;;;4.90;4.50;;;16.60;99.90;;;;;;5072789;28;20456;-66
2022/09/02 04:41:12;;;;;;;5.83;4.90;;;16.60;99.90;;;;;;5073128;28;20566;-65
2022/09/02 04:43:40;;;;;;;5.10;4.60;;;16.10;99.90;;;;;;5073098;28;20538;-66
2022/09/02 04:46:10;;;;;;;5.50;4.40;;;15.80;99.90;;;;;;5072708;28;20456;-66
2022/09/02 04:48:38;;;;;;;5.40;4.40;;;15.40;99.90;;;;;;5071882;28;20491;-66
2022/09/02 04:51:09;;;;;;;4.47;4.17;;;15.60;99.90;;;;;;5072768;28;20451;-65
2022/09/02 04:53:37;;;;;;;5.10;4.50;;;15.30;99.90;;;;;;5072793;28;20409;-66
2022/09/02 04:56:06;;;;;;;6.67;4.63;;;15.50;99.90;;;;;;5072709;28;20479;-65
2022/09/02 04:58:33;;;;;;;5.03;4.60;;;15.70;99.90;;;;;;5072833;28;20794;-66
2022/09/02 05:01:06;;;;;;;4.67;4.27;;;16.00;99.90;;;;;;5072499;28;20963;-66
2022/09/02 05:03:33;;;;;;;5.07;4.67;;;15.90;99.90;;;;;;5072472;28;20934;-65
2022/09/02 05:06:01;;;;;;;4.67;4.27;;;16.20;99.90;;;;;;5072766;28;20440;-65
2022/09/02 05:08:30;;;;;;;7.57;5.23;;;16.10;99.90;;;;;;5072871;28;20472;-65
2022/09/02 05:10:57;;;;;;;5.90;4.77;;;15.90;99.90;;;;;;5072590;28;20483;-65
2022/09/02 05:13:25;;;;;;;8.00;4.57;;;15.70;99.90;;;;;;5072722;28;20460;-65
2022/09/02 05:15:53;;;;;;;5.60;4.70;;;15.60;99.90;;;;;;5072433;28;20549;-65
2022/09/02 05:18:20;;;;;;;4.63;4.23;;;16.00;99.90;;;;;;5072796;28;20530;-65
2022/09/02 05:20:47;;;;;;;5.83;5.27;;;16.20;99.90;;;;;;5072679;28;20551;-65
2022/09/02 05:23:15;;;;;;;5.10;4.60;;;16.30;99.90;;;;;;5072170;28;20455;-65
2022/09/02 05:25:44;;;;;;;7.53;4.80;;;16.40;99.90;;;;;;5072292;28;20447;-65
2022/09/02 05:28:11;;;;;;;7.00;4.07;;;16.50;99.90;;;;;;5072693;28;20444;-65
2022/09/02 05:30:40;;;;;;;4.17;3.77;;;16.40;99.90;;;;;;5072693;28;20470;-66
2022/09/02 05:33:07;;;;;;;5.47;4.97;;;16.40;99.90;;;;;;5072125;28;20451;-66
2022/09/02 05:35:39;;;;;;;5.27;4.83;;;16.30;99.90;;;;;;5073920;28;20482;-66
2022/09/02 05:38:07;;;;;;;4.30;3.90;;;16.20;99.90;;;;;;5076031;28;20439;-66
2022/09/02 05:40:34;;;;;;;4.77;4.37;;;16.30;99.90;;;;;;5075887;28;20455;-65
2022/09/02 05:43:03;;;;;;;5.50;4.97;;;16.40;99.90;;;;;;5075687;28;20424;-66
2022/09/02 05:45:30;;;;;;;7.87;5.10;;;16.40;99.90;;;;;;5075758;28;20432;-66
2022/09/02 05:47:57;;;;;;;5.47;4.30;;;16.50;99.90;;;;;;5075532;28;20498;-66
2022/09/02 05:50:24;;;;;;;4.93;4.60;;;16.50;99.90;;;;;;5075359;28;20792;-65
2022/09/02 05:52:52;;;;;;;5.93;4.77;;;16.50;99.90;;;;;;5075278;28;20539;-66
2022/09/02 05:55:19;;;;;;;5.23;4.73;;;16.50;99.90;;;;;;5075733;28;20506;-66
2022/09/02 05:57:46;;;;;;;6.13;5.50;;;16.50;99.90;;;;;;5075411;28;20443;-66
2022/09/02 06:00:15;;;;;;;6.63;5.07;;;16.50;99.90;;;;;;5075636;28;20448;-66
2022/09/02 06:02:43;;;;;;;5.30;4.70;;;16.70;99.90;;;;;;5075380;28;20539;-66
2022/09/02 06:05:11;;;;;;;6.90;5.63;;;16.70;99.90;;;;;;5075573;28;20452;-66
2022/09/02 06:07:38;;;;;;;5.67;5.17;;;16.60;99.90;;;;;;5075452;28;20453;-66
2022/09/02 06:10:06;;;;;;;7.90;5.77;;;16.60;99.90;;;;;;5075285;28;20984;-66
2022/09/02 06:12:34;;;;;;;5.80;5.17;;;16.50;99.90;;;;;;5075450;28;20512;-66
2022/09/02 06:15:01;;;;;;;5.60;5.10;;;16.50;99.90;;;;;;5075300;28;20483;-67
2022/09/02 06:17:30;;;;;;;6.63;5.67;;;16.40;99.90;;;;;;5075228;28;20535;-66
2022/09/02 06:19:57;;;;;;;5.37;4.87;;;16.50;99.90;;;;;;5075144;28;20539;-66
2022/09/02 06:22:24;;;;;;;5.63;5.13;;;16.60;99.90;;;;;;5075030;28;20598;-66
2022/09/02 06:24:52;;;;;;;5.63;4.47;;;16.80;99.90;;;;;;5074698;28;20457;-66
2022/09/02 06:27:19;;;;;;;7.37;5.50;;;16.90;99.90;;;;;;5074966;28;20444;-66
2022/09/02 06:29:46;;;;;;;5.93;4.90;;;16.80;99.90;;;;;;5074798;28;20953;-66
2022/09/02 06:32:13;;;;;;;4.90;4.60;;;16.80;99.90;;;;;;5074834;28;20560;-66
2022/09/02 06:34:42;;;;;;;5.83;4.60;;;16.80;99.90;;;;;;5074662;28;20807;-66
2022/09/02 06:37:09;;;;;;;6.27;4.50;;;16.70;99.90;;;;;;5074467;28;20484;-66
2022/09/02 06:39:37;;;;;;;9.33;4.97;;;16.80;99.90;;;;;;5074871;28;20524;-66
2022/09/02 06:42:04;;;;;;;5.83;4.80;;;16.90;99.90;;;;;;5074737;28;20971;-66
2022/09/02 06:44:31;;;;;;;6.20;4.60;;;16.80;99.90;;;;;;5074316;28;20546;-66
2022/09/02 06:46:59;;;;;;;6.70;5.37;;;17.00;99.90;;;;;;5073680;28;20476;-66
2022/09/02 06:49:28;;;;;;;5.30;4.80;;;17.10;99.90;;;;;;5074839;28;20515;-66
2022/09/02 06:51:57;;;;;;;4.73;4.33;;;17.00;99.90;;;;;;5074202;28;20464;-66
2022/09/02 06:54:25;;;;;;;13.40;3.90;;;17.10;99.90;;;;;;5073982;28;20939;-66
2022/09/02 06:56:52;;;;;;;7.20;4.20;;;17.50;99.90;;;;;;5074226;28;20480;-67
2022/09/02 06:59:21;;;;;;;5.60;4.90;;;17.80;99.90;;;;;;5074207;28;20544;-66
2022/09/02 07:01:48;;;;;;;4.40;3.60;;;18.10;99.90;;;;;;5074354;28;20883;-66
2022/09/02 07:07:05;;;;;;;4.50;4.10;;;18.50;99.90;;;;;;5074044;28;20400;-65
2022/09/02 07:09:32;;;;;;;4.43;4.03;;;18.60;99.90;;;;;;5074133;28;20456;-66
2022/09/02 07:12:01;;;;;;;5.90;4.87;;;18.30;99.90;;;;;;5073999;28;20476;-66
2022/09/02 07:14:28;;;;;;;5.83;3.83;;;18.20;99.90;;;;;;5073906;28;20480;-66
2022/09/02 07:16:58;;;;;;;6.33;3.93;;;18.30;99.90;;;;;;5074218;28;20487;-66
2022/09/02 07:19:26;;;;;;;4.47;4.07;;;18.20;99.90;;;;;;5074095;28;20543;-67
2022/09/02 07:21:53;;;;;;;6.93;3.90;;;18.20;99.90;;;;;;5073635;28;20547;-72
2022/09/02 07:24:22;;;;;;;6.03;4.27;;;18.40;99.90;;;;;;5073885;28;20482;-66
2022/09/02 07:26:50;;;;;;;6.00;3.90;;;18.40;99.90;;;;;;5073892;28;20437;-66
2022/09/02 07:29:17;;;;;;;4.80;3.87;;;18.70;99.90;;;;;;5073541;28;20456;-67
2022/09/02 07:31:47;;;;;;;5.00;4.00;;;18.60;99.90;;;;;;5073706;28;20491;-66
2022/09/02 07:34:15;;;;;;;8.10;4.23;;;18.30;99.90;;;;;;5073576;28;20478;-66
2022/09/02 07:36:44;;;;;;;5.23;4.50;;;18.20;99.90;;;;;;5073649;28;20479;-66
2022/09/02 07:39:12;;;;;;;5.43;4.13;;;17.90;99.90;;;;;;5063165;28;20465;-67
2022/09/02 07:41:42;;;;;;;4.50;3.97;;;18.10;99.90;;;;;;5051883;28;21070;-67
2022/09/02 07:44:09;;;;;;;6.13;4.33;;;18.30;99.90;;;;;;5051119;28;20453;-67
2022/09/02 07:46:37;;;;;;;6.70;4.40;;;18.10;99.90;;;;;;5051295;28;20925;-66
2022/09/02 07:49:07;;;;;;;4.47;4.07;;;18.30;99.90;;;;;;5051598;28;20453;-66
2022/09/02 07:51:36;;;;;;;3.93;3.63;;;18.60;99.90;;;;;;5051216;28;20453;-66
2022/09/02 07:54:05;;;;;;;3.80;3.50;;;19.00;99.90;;;;;;5051111;28;20448;-66
2022/09/02 07:56:33;;;;;;;4.13;3.27;;;19.20;99.90;;;;;;5051950;28;20546;-66
2022/09/02 07:59:02;;;;;;;4.10;3.70;;;19.10;99.90;;;;;;5053494;28;20839;-66
2022/09/02 08:01:29;;;;;;;3.90;3.40;;;19.00;99.90;;;;;;5053089;28;21018;-66
2022/09/02 08:03:57;;;;;;;5.50;3.30;;;19.10;99.90;;;;;;5053051;28;20536;-66
2022/09/02 08:06:26;;;;;;;3.50;3.10;;;18.90;99.90;;;;;;5052241;28;20460;-66
2022/09/02 08:08:53;;;;;;;6.63;3.13;;;19.10;99.90;;;;;;5052923;28;20456;-66
2022/09/02 08:11:21;;;;;;;5.63;3.20;;;19.00;99.90;;;;;;5052996;28;20457;-65
2022/09/02 08:13:49;;;;;;;3.40;3.10;;;19.10;99.90;;;;;;5053050;28;20453;-66
2022/09/02 08:16:18;;;;;;;3.00;2.80;;;19.20;99.90;;;;;;5052553;28;20516;-66
2022/09/02 08:18:45;;;;;;;4.03;2.57;;;19.60;99.90;;;;;;5052736;28;20537;-66
2022/09/02 08:21:12;;;;;;;4.30;2.50;;;19.40;99.90;;;;;;5054245;28;20485;-66
2022/09/02 08:23:39;;;;;;;3.67;3.27;;;19.50;99.90;;;;;;5051316;28;20977;-66
2022/09/02 08:26:08;;;;;;;3.93;2.83;;;19.50;99.90;;;;;;5062340;28;20453;-66
2022/09/02 08:28:35;;;;;;;3.33;3.03;;;19.60;99.90;;;;;;5071488;28;20993;-66
2022/09/02 08:31:06;;;;;;;3.07;2.77;;;19.50;99.90;;;;;;5071199;28;20461;-66
2022/09/02 08:33:35;;;;;;;4.37;2.87;;;19.50;99.90;;;;;;5072133;28;20515;-66
2022/09/02 08:36:04;;;;;;;2.87;2.40;;;20.00;99.90;;;;;;5072280;28;20431;-66
2022/09/02 08:38:31;;;;;;;2.90;2.70;;;20.10;99.90;;;;;;5072844;28;20448;-66
2022/09/02 08:40:59;;;;;;;3.00;2.80;;;20.20;99.90;;;;;;5072787;28;20508;-66
2022/09/02 08:43:37;;;;;;;2.80;2.30;;;20.90;99.90;;;;;;5072843;28;20452;-66
2022/09/02 08:46:05;;;;;;;2.97;2.50;;;21.20;99.90;;;;;;5072611;28;20895;-66
2022/09/02 08:48:39;;;;;;;4.63;2.47;;;22.30;99.90;;;;;;5072658;28;20484;-66
2022/09/02 08:51:10;;;;;;;3.23;2.70;;;22.50;98.10;;;;;;5072766;28;20507;-66
2022/09/02 08:53:46;;;;;;;3.60;2.93;;;22.90;98.40;;;;;;5072822;28;20791;-66
2022/09/02 08:56:17;;;;;;;2.30;2.10;;;23.30;96.70;;;;;;5072829;28;20475;-65
2022/09/02 08:58:48;;;;;;;4.97;2.70;;;23.80;95.50;;;;;;5073019;28;20433;-62
2022/09/02 09:01:26;;;;;;;2.80;2.50;;;23.60;95.30;;;;;;5073141;28;20468;-62
2022/09/02 09:04:19;;;;;;;4.47;2.40;;;23.30;94.80;;;;;;5072771;28;20432;-61
2022/09/02 09:06:55;;;;;;;2.50;2.20;;;;;;;;;;5070667;28;20448;-61
2022/09/02 09:09:33;;;;;;;2.03;1.80;;;23.70;92.80;;;;;;5072817;28;20435;-62
2022/09/02 09:12:06;;;;;;;2.77;2.50;;;23.50;93.00;;;;;;5076611;28;20479;-61
2022/09/02 09:14:40;;;;;;;6.30;2.30;;;23.60;93.10;;;;;;5076095;28;20519;-62
2022/09/02 09:17:14;;;;;;;3.27;2.40;;;24.30;91.50;;;;;;5076127;28;20464;-62
2022/09/02 09:19:48;;;;;;;4.40;2.23;;;24.50;91.60;;;;;;5076566;28;20443;-62
2022/09/02 09:22:19;;;;;;;2.27;1.80;;;24.50;91.00;;;;;;5076010;28;20466;-62
2022/09/02 09:24:48;;;;;;;2.37;2.17;;;24.70;90.70;;;;;;5075918;28;20515;-61
2022/09/02 09:27:18;;;;;;;2.93;2.20;;;25.00;90.10;;;;;;5076003;28;20452;-61
2022/09/02 09:29:45;;;;;;;3.90;2.90;;;24.60;90.00;;;;;;5076285;28;20527;-61
2022/09/02 09:32:21;;;;;;;2.50;2.00;;;24.90;89.80;;;;;;5075854;28;20468;-61
2022/09/02 09:35:02;;;;;;;4.63;2.93;;;24.70;86.90;;;;;;5075673;28;20465;-61
2022/09/02 09:37:35;;;;;;;2.30;2.10;;;25.40;85.00;;;;;;5075942;28;20467;-62
2022/09/02 09:40:20;;;;;;;8.33;2.57;;;25.60;85.50;;;;;;5076098;28;20424;-61
2022/09/02 09:42:48;;;;;;;2.40;2.20;;;25.80;83.10;;;;;;5076364;28;20466;-61
2022/09/02 09:45:20;;;;;;;2.73;2.27;;;25.90;80.40;;;;;;5075921;28;20495;-61
2022/09/02 09:48:26;;;;;;;2.30;2.10;;;26.60;81.90;;;;;;5075560;28;20555;-61
2022/09/02 09:51:16;;;;;;;3.90;2.17;;;26.30;78.70;;;;;;5075785;28;20470;-61
2022/09/02 09:53:44;;;;;;;1.97;1.87;;;26.60;78.80;;;;;;5075496;28;20881;-61
2022/09/02 09:56:29;;;;;;;2.83;2.20;;;27.20;78.30;;;;;;5075329;28;20452;-62
2022/09/02 09:58:56;;;;;;;2.03;1.93;;;27.00;74.40;;;;;;5075612;28;20456;-62
2022/09/02 10:01:26;;;;;;;2.37;2.10;;;27.50;71.00;;;;;;5075495;28;20825;-62
2022/09/02 10:03:56;;;;;;;2.13;1.70;;;27.00;71.70;;;;;;5075385;28;20448;-61
2022/09/02 10:06:37;;;;;;;3.47;2.13;;;27.50;71.80;;;;;;5075391;28;20503;-61
2022/09/02 10:09:07;;;;;;;2.20;1.97;;;27.40;69.80;;;;;;5075385;28;20417;-61
2022/09/02 10:11:36;;;;;;;2.20;1.97;;;26.00;70.10;;;;;;5075138;28;20483;-62
2022/09/02 10:14:06;;;;;;;2.93;1.87;;;25.80;69.50;;;;;;5075148;28;20452;-63
2022/09/02 10:16:51;;;;;;;2.63;2.00;;;26.80;72.10;;;;;;5075286;28;20447;-59
2022/09/02 10:19:26;;;;;;;2.30;1.83;;;27.00;67.00;;;;;;5075142;28;20464;-56
2022/09/02 10:22:20;;;;;;;3.90;2.20;;;26.90;66.10;;;;;;5073693;28;21026;-57
2022/09/02 10:25:03;;;;;;;3.50;2.43;;;26.10;66.10;;;;;;5074991;28;20412;-60
2022/09/02 10:27:40;;;;;;;5.73;2.37;;;26.10;64.50;;;;;;5074967;28;20468;-64
2022/09/02 10:30:15;;;;;;;2.30;2.10;;;26.30;62.90;;;;;;5075062;28;20435;-64
2022/09/02 10:33:08;;;;;;;3.00;1.63;;;26.60;66.30;;;;;;5074711;28;20482;-63
2022/09/02 10:35:41;;;;;;;1.90;1.70;;;27.20;61.80;;;;;;5074459;28;20468;-66
2022/09/02 10:38:28;;;;;;;2.30;2.00;;;27.70;59.60;;;;;;5074842;28;20468;-66
2022/09/02 10:41:02;;;;;;;1.80;1.70;;;27.70;60.60;;;;;;5074803;28;20517;-66
2022/09/02 10:43:49;;;;;;;2.00;1.80;;;27.30;59.70;;;;;;5074353;28;20540;-66
2022/09/02 10:46:24;;;;;;;2.90;2.00;;;27.80;60.40;;;;;;5074767;28;20433;-67
2022/09/02 10:49:05;;;;;;;2.90;1.87;;;27.60;58.80;;;;;;5074352;28;20482;-68
2022/09/02 10:51:42;;;;;;;3.23;1.83;;;28.00;59.60;;;;;;5074731;28;20555;-66
2022/09/02 10:54:24;;;;;;;2.10;1.80;;;28.50;58.90;;;;;;5074764;28;20786;-65
2022/09/02 10:56:59;;;;;;;2.23;2.07;;;28.40;59.00;;;;;;5074714;28;20554;-67
2022/09/02 10:59:33;;;;;;;2.07;1.97;;;27.50;58.20;;;;;;5074233;28;20510;-66
2022/09/02 11:02:09;;;;;;;2.03;1.83;;;27.40;59.50;;;;;;5074082;28;20472;-67
2022/09/02 11:04:38;;;;;;;3.60;2.47;;;;;;;;;;5074439;28;20432;-67
2022/09/02 11:07:09;;;;;;;1.93;1.80;;;28.00;57.70;;;;;;5074205;28;20867;-66
2022/09/02 11:09:44;;;;;;;1.73;1.63;;;28.40;57.80;;;;;;5074212;28;20472;-66
2022/09/02 11:12:17;;;;;;;2.30;2.10;;;28.30;57.80;;;;;;5073914;28;20476;-66
2022/09/02 11:14:55;;;;;;;2.40;1.90;;;28.60;58.00;;;;;;5074111;28;20428;-66
2022/09/02 11:17:28;;;;;;;2.00;1.60;;;29.10;57.50;;;;;;5073882;28;20460;-66
2022/09/02 11:20:03;;;;;;;1.90;1.70;;;29.40;56.40;;;;;;5073906;28;20429;-67
2022/09/02 11:22:38;;;;;;;2.00;1.80;;;29.00;56.40;;;;;;5074103;28;20472;-67
2022/09/02 11:25:12;;;;;;;2.60;1.80;;;28.60;55.70;;;;;;5073669;28;20467;-66
2022/09/02 11:27:44;;;;;;;3.00;1.87;;;28.60;57.10;;;;;;5073703;28;20899;-66
2022/09/02 11:30:15;;;;;;;2.80;1.80;;;28.80;57.00;;;;;;5073957;28;20425;-66
2022/09/02 11:32:49;;;;;;;2.03;1.73;;;28.50;55.60;;;;;;5073406;28;20924;-66
2022/09/02 11:35:20;;;;;;;2.40;2.00;;;28.00;56.50;;;;;;5074235;28;20433;-66
2022/09/02 11:37:52;;;;;;;2.70;2.00;;;28.40;56.80;;;;;;5073435;28;20464;-67
2022/09/02 11:40:26;;;;;;;3.30;1.83;;;28.40;56.70;;;;;;5073713;28;20428;-67
2022/09/02 11:43:20;;;;;;;2.10;1.90;;;28.60;56.60;;;;;;5073563;28;20432;-66
2022/09/02 11:46:06;;;;;;;2.23;2.03;;;29.20;55.70;;;;;;5073278;28;20427;-67
2022/09/02 11:49:07;;;;;;;2.00;1.90;;;28.70;54.90;;;;;;5073159;28;20970;-66
2022/09/02 11:51:48;;;;;;;1.90;1.80;;;28.70;54.70;;;;;;5073079;28;20464;-66
2022/09/02 11:54:18;;;;;;;2.60;1.83;;;28.70;56.10;;;;;;5073307;28;20425;-66
2022/09/02 11:56:51;;;;;;;2.00;1.80;;;29.00;56.10;;;;;;5073235;28;20429;-65
2022/09/02 11:59:23;;;;;;;2.23;2.03;;;29.70;55.70;;;;;;5073335;28;20421;-66
2022/09/02 12:01:52;;;;;;;3.80;2.00;;;28.80;55.40;;;;;;5073153;28;20491;-65
2022/09/02 12:04:25;;;;;;;2.10;1.90;;;28.90;56.50;;;;;;5072917;28;20451;-66
2022/09/02 12:07:24;;;;;;;2.27;2.03;;;29.10;55.80;;;;;;5073353;28;20474;-66
2022/09/02 12:09:54;;;;;;;2.67;1.77;;;28.90;54.80;;;;;;5073114;28;20448;-66
2022/09/02 12:12:59;;;;;;;2.97;1.80;;;29.00;55.30;;;;;;5072679;28;20476;-67
2022/09/02 12:15:27;;;;;;;3.03;2.13;;;29.00;54.30;;;;;;5073283;28;20440;-66
2022/09/02 12:18:29;;;;;;;3.40;2.10;;;29.10;55.60;;;;;;5073074;28;20480;-67
2022/09/02 12:21:07;;;;;;;4.30;2.23;;;29.30;55.10;;;;;;5072831;28;20485;-67
2022/09/02 12:24:03;;;;;;;2.60;1.90;;;29.30;54.70;;;;;;5073054;28;20436;-66
2022/09/02 12:27:01;;;;;;;2.40;2.00;;;29.40;54.80;;;;;;5072772;28;20462;-67
2022/09/02 12:29:33;;;;;;;1.97;1.87;;;29.10;53.60;;;;;;5072775;28;20440;-66
2022/09/02 12:32:02;;;;;;;1.90;1.80;;;29.00;54.60;;;;;;5073061;28;20469;-65
2022/09/02 12:35:06;;;;;;;2.60;2.00;;;29.20;55.20;;;;;;5072718;28;20542;-66
2022/09/02 12:37:55;;;;;;;2.90;2.40;;;29.20;54.80;;;;;;5073079;28;20448;-65
2022/09/02 12:40:38;;;;;;;4.53;1.83;;;28.90;54.40;;;;;;5073127;28;20429;-66
2022/09/02 12:43:25;;;;;;;3.37;2.00;;;28.70;54.90;;;;;;5072994;28;20429;-65
2022/09/02 12:45:55;;;;;;;3.67;1.97;;;29.10;54.70;;;;;;5075316;28;20432;-67
2022/09/02 12:48:34;;;;;;;2.70;2.10;;;29.20;53.50;;;;;;5076533;28;20515;-66
2022/09/02 12:51:02;;;;;;;2.20;2.00;;;29.30;54.40;;;;;;5076742;28;20495;-66
2022/09/02 12:53:37;;;;;;;2.33;1.87;;;28.40;53.40;;;;;;5076795;28;20966;-66
2022/09/02 12:56:08;;;;;;;4.30;1.93;;;27.70;54.70;;;;;;5077024;28;20438;-67
2022/09/02 12:58:39;;;;;;;1.97;1.87;;;27.20;54.30;;;;;;5076458;28;20970;-66
2022/09/02 13:01:14;;;;;;;3.63;2.20;;;27.00;54.20;;;;;;5076415;28;20518;-66
2022/09/02 13:04:11;;;;;;;3.00;1.80;;;27.10;54.20;;;;;;5076333;28;20511;-66
2022/09/02 13:07:04;;;;;;;2.17;1.83;;;27.70;53.90;;;;;;5076302;28;20433;-67
2022/09/02 13:10:10;;;;;;;3.07;2.83;;;27.50;54.30;;;;;;5076707;28;20416;-67
2022/09/02 13:13:16;;;;;;;3.97;2.30;;;27.20;54.50;;;;;;5076517;28;20478;-66